Time;durP1;ratioP1;P1;durP2;ratioP2;P2;SDS_P1;SDS_P2;PMS_P1;PMS_P2;Temp;Humidity;BMP_temperature;BMP_pressure;BME280_temperature;BME280_humidity;BME280_pressure;Samples;Min_cycle;Max_cycle;Signal;HPM_P1;HPM_P2
2023/01/31 00:01:30;;;;;;;;;;;5.00;84.30;;;;;;5092366;28;19995;-40
2023/01/31 00:03:57;;;;;;;;;;;5.00;84.30;;;;;;5092314;28;19912;-35
2023/01/31 00:06:24;;;;;;;;;;;5.00;84.30;;;;;;5093673;28;19912;-34
2023/01/31 00:08:50;;;;;;;;;;;5.00;84.30;;;;;;5093879;28;19923;-35
2023/01/31 00:11:16;;;;;;;;;;;5.00;84.30;;;;;;5093982;28;20390;-35
2023/01/31 00:13:42;;;;;;;;;;;4.90;84.20;;;;;;5093440;28;19912;-36
2023/01/31 00:16:08;;;;;;;;;;;4.90;84.20;;;;;;5093427;28;20272;-36
2023/01/31 00:18:34;;;;;;;;;;;4.90;84.30;;;;;;5093386;28;20056;-35
2023/01/31 00:21:04;;;;;;;;;;;4.90;84.30;;;;;;5093062;28;19923;-37
2023/01/31 00:23:30;;;;;;;;;;;4.90;84.20;;;;;;5093430;28;20007;-36
2023/01/31 00:26:05;;;;;;;;;;;4.90;84.20;;;;;;5093206;28;20350;-36
2023/01/31 00:28:30;;;;;;;;;;;4.90;84.20;;;;;;5093323;28;19912;-35
2023/01/31 00:30:57;;;;;;;;;;;4.90;84.30;;;;;;5093094;28;20347;-35
2023/01/31 00:33:22;;;;;;;;;;;4.90;84.20;;;;;;5092984;28;19919;-36
2023/01/31 00:35:48;;;;;;;;;;;4.90;84.30;;;;;;5092961;28;20363;-36
2023/01/31 00:38:13;;;;;;;;;;;4.90;84.90;;;;;;5092907;28;19947;-36
2023/01/31 00:40:39;;;;;;;;;;;4.90;84.30;;;;;;5092734;28;19969;-41
2023/01/31 00:43:04;;;;;;;;;;;4.80;84.30;;;;;;5092811;28;19919;-35
2023/01/31 00:45:30;;;;;;;;;;;4.80;84.40;;;;;;5093071;28;19960;-36
2023/01/31 00:47:55;;;;;;;;;;;4.70;84.40;;;;;;5092426;28;20019;-31
2023/01/31 00:50:21;;;;;;;;;;;4.70;84.40;;;;;;5092729;28;19912;-37
2023/01/31 00:52:46;;;;;;;;;;;4.70;84.50;;;;;;5092730;28;20007;-33
2023/01/31 00:55:12;;;;;;;;;;;4.60;84.50;;;;;;5092598;28;20368;-34
2023/01/31 00:57:37;;;;;;;;;;;4.60;84.50;;;;;;5092493;28;19959;-34
2023/01/31 01:00:03;;;;;;;;;;;4.50;84.50;;;;;;5092429;28;20338;-36
2023/01/31 01:02:29;;;;;;;;;;;4.50;84.60;;;;;;5092434;28;19916;-29
2023/01/31 01:04:54;;;;;;;;;;;4.50;84.70;;;;;;5092423;28;20358;-31
2023/01/31 01:07:20;;;;;;;;;;;4.50;84.70;;;;;;5092436;28;19912;-34
2023/01/31 01:09:45;;;;;;;;;;;4.40;84.70;;;;;;5092238;28;20435;-31
2023/01/31 01:12:11;;;;;;;;;;;4.40;84.70;;;;;;5092174;28;19916;-32
2023/01/31 01:14:36;;;;;;;;;;;4.40;84.80;;;;;;5092732;28;19920;-31
2023/01/31 01:17:02;;;;;;;;;;;4.40;84.80;;;;;;5091026;28;19912;-30
2023/01/31 01:19:28;;;;;;;;;;;4.40;84.80;;;;;;5092187;28;19923;-33
2023/01/31 01:21:54;;;;;;;;;;;4.40;84.80;;;;;;5092026;28;20485;-35
2023/01/31 01:24:19;;;;;;;;;;;4.40;84.90;;;;;;5092032;28;19912;-36
2023/01/31 01:26:45;;;;;;;;;;;4.40;84.90;;;;;;5092278;28;19919;-36
2023/01/31 01:29:11;;;;;;;;;;;4.40;84.90;;;;;;5091993;28;19912;-36
2023/01/31 01:31:37;;;;;;;;;;;4.40;84.90;;;;;;5091990;28;19912;-29
2023/01/31 01:34:04;;;;;;;;;;;4.40;84.90;;;;;;5091960;28;19919;-36
2023/01/31 01:36:32;;;;;;;;;;;4.30;84.90;;;;;;5092179;28;20355;-38
2023/01/31 01:38:58;;;;;;;;;;;4.30;84.90;;;;;;5091672;28;19938;-32
2023/01/31 01:41:23;;;;;;;;;;;4.30;84.90;;;;;;5091643;28;19916;-32
2023/01/31 01:43:49;;;;;;;;;;;4.30;85.00;;;;;;5091752;28;19961;-31
2023/01/31 01:46:17;;;;;;;;;;;4.30;85.00;;;;;;5092028;28;19950;-34
2023/01/31 01:48:45;;;;;;;;;;;4.30;85.10;;;;;;5091836;28;19919;-34
2023/01/31 01:51:12;;;;;;;;;;;4.30;85.00;;;;;;5091764;28;19923;-32
2023/01/31 01:53:38;;;;;;;;;;;4.20;85.00;;;;;;5091759;28;19916;-31
2023/01/31 01:56:08;;;;;;;;;;;4.20;85.00;;;;;;5091630;28;20320;-30
2023/01/31 01:58:38;;;;;;;;;;;4.20;85.10;;;;;;5091765;28;19942;-35
2023/01/31 02:01:07;;;;;;;;;;;4.20;85.10;;;;;;5093752;28;19969;-33
2023/01/31 02:03:33;;;;;;;;;;;4.20;85.10;;;;;;5095862;28;20003;-33
2023/01/31 02:06:00;;;;;;;;;;;4.20;85.20;;;;;;5095967;28;20023;-38
2023/01/31 02:08:28;;;;;;;;;;;4.10;85.20;;;;;;5095799;28;19950;-32
2023/01/31 02:10:56;;;;;;;;;;;4.10;85.10;;;;;;5095853;28;19912;-35
2023/01/31 02:13:22;;;;;;;;;;;4.20;85.30;;;;;;5095810;28;19912;-33
2023/01/31 02:15:48;;;;;;;;;;;4.10;85.20;;;;;;5095660;28;19912;-33
2023/01/31 02:18:14;;;;;;;;;;;4.10;85.30;;;;;;5095700;28;20287;-38
2023/01/31 02:20:57;;;;;;;;;;;4.10;85.30;;;;;;5095404;28;19927;-30
2023/01/31 02:23:28;;;;;;;;;;;4.20;85.30;;;;;;5095503;28;19919;-36
2023/01/31 02:26:09;;;;;;;;;;;4.20;85.20;;;;;;5095471;28;20346;-32
2023/01/31 02:28:47;;;;;;;;;;;4.30;85.10;;;;;;5095270;28;19995;-39
2023/01/31 02:31:12;;;;;;;;;;;4.40;85.00;;;;;;5095456;28;19919;-40
2023/01/31 02:33:44;;;;;;;;;;;4.40;84.90;;;;;;5095311;28;19913;-32
2023/01/31 02:36:28;;;;;;;;;;;4.50;84.90;;;;;;5095485;28;19924;-33
2023/01/31 02:39:19;;;;;;;;;;;4.50;84.80;;;;;;5095131;28;20003;-34
2023/01/31 02:41:44;;;;;;;;;;;4.50;84.70;;;;;;5092621;28;20368;-34
2023/01/31 02:47:19;;;;;;;;;;;4.60;84.70;;;;;;5094992;28;20011;-31
2023/01/31 02:49:44;;;;;;;;;;;4.60;84.60;;;;;;5095025;28;20007;-36
2023/01/31 02:52:15;;;;;;;;;;;4.70;84.60;;;;;;5094953;28;20084;-34
2023/01/31 02:57:42;;;;;;;;;;;4.80;84.50;;;;;;5094026;28;19919;-34
2023/01/31 03:00:08;;;;;;;;;;;4.80;84.50;;;;;;5094812;28;19960;-33
2023/01/31 03:02:34;;;;;;;;;;;4.80;84.40;;;;;;5094968;28;19916;-33
2023/01/31 03:04:59;;;;;;;;;;;4.80;84.50;;;;;;5094618;28;19938;-48
2023/01/31 03:07:28;;;;;;;;;;;4.80;84.40;;;;;;5094655;28;20279;-32
2023/01/31 03:10:01;;;;;;;;;;;4.80;84.50;;;;;;5094803;28;20375;-33
2023/01/31 03:12:45;;;;;;;;;;;4.80;84.50;;;;;;5094509;28;19960;-35
2023/01/31 03:15:12;;;;;;;;;;;4.70;84.50;;;;;;5094530;28;19908;-30
2023/01/31 03:17:49;;;;;;;;;;;4.80;84.60;;;;;;5094746;28;19960;-31
2023/01/31 03:20:15;;;;;;;;;;;4.80;84.60;;;;;;5094465;28;19915;-31
2023/01/31 03:22:48;;;;;;;;;;;4.80;84.60;;;;;;5094336;28;19908;-30
2023/01/31 03:25:15;;;;;;;;;;;4.80;84.50;;;;;;5094534;28;19908;-30
2023/01/31 03:27:42;;;;;;;;;;;4.90;84.60;;;;;;5094532;28;20376;-31
2023/01/31 03:30:13;;;;;;;;;;;4.90;84.60;;;;;;5094468;28;20020;-31
2023/01/31 03:32:44;;;;;;;;;;;4.90;84.60;;;;;;5094505;28;19908;-34
2023/01/31 03:35:10;;;;;;;;;;;5.00;84.60;;;;;;5094090;28;19912;-30
2023/01/31 03:37:53;;;;;;;;;;;5.00;84.60;;;;;;5094397;28;19915;-30
2023/01/31 03:40:23;;;;;;;;;;;5.00;84.60;;;;;;5094141;28;19915;-30
2023/01/31 03:43:07;;;;;;;;;;;5.00;84.60;;;;;;5094090;28;19915;-32
2023/01/31 03:45:40;;;;;;;;;;;5.00;84.60;;;;;;5094362;28;20011;-33
2023/01/31 03:48:12;;;;;;;;;;;5.00;84.60;;;;;;5094218;28;20007;-32
2023/01/31 03:50:40;;;;;;;;;;;5.00;84.70;;;;;;5093912;28;19915;-34
2023/01/31 03:53:07;;;;;;;;;;;5.00;84.80;;;;;;5093738;28;19908;-30
2023/01/31 03:55:40;;;;;;;;;;;5.00;84.80;;;;;;5094240;28;19991;-34
2023/01/31 03:58:07;;;;;;;;;;;5.00;84.90;;;;;;5092505;28;20368;-37
2023/01/31 04:00:33;;;;;;;;;;;5.10;85.00;;;;;;5093610;28;19954;-33
2023/01/31 04:03:22;;;;;;;;;;;5.10;85.00;;;;;;5093707;28;20015;-31
2023/01/31 04:05:48;;;;;;;;;;;5.10;85.30;;;;;;5087826;28;20314;-42
2023/01/31 04:08:14;;;;;;;;;;;5.10;85.00;;;;;;5093875;28;19908;-30
2023/01/31 04:10:39;;;;;;;;;;;5.10;85.10;;;;;;5093533;28;19908;-32
2023/01/31 04:13:05;;;;;;;;;;;5.10;85.20;;;;;;5092110;28;20002;-31
2023/01/31 04:15:30;;;;;;;;;;;5.10;85.30;;;;;;5093446;28;19960;-34
2023/01/31 04:17:56;;;;;;;;;;;5.10;86.00;;;;;;5093269;28;19908;-35
2023/01/31 04:20:21;;;;;;;;;;;5.10;85.30;;;;;;5093140;28;19916;-30
2023/01/31 04:22:47;;;;;;;;;;;5.10;85.40;;;;;;5092810;28;19958;-30
2023/01/31 04:25:12;;;;;;;;;;;5.10;85.40;;;;;;5093244;28;20000;-33
2023/01/31 04:27:38;;;;;;;;;;;5.10;85.60;;;;;;5093063;28;19908;-32
2023/01/31 04:30:04;;;;;;;;;;;5.10;85.60;;;;;;5093418;28;20257;-33
2023/01/31 04:32:29;;;;;;;;;;;5.20;85.70;;;;;;5093038;28;20291;-36
2023/01/31 04:34:55;;;;;;;;;;;5.20;85.70;;;;;;5093090;28;19908;-35
2023/01/31 04:37:21;;;;;;;;;;;5.20;85.80;;;;;;5092901;28;19915;-31
2023/01/31 04:39:46;;;;;;;;;;;5.20;85.80;;;;;;5092864;28;19917;-32
2023/01/31 04:42:11;;;;;;;;;;;5.20;85.80;;;;;;5092759;28;19920;-33
2023/01/31 04:44:37;;;;;;;;;;;5.20;85.90;;;;;;5093170;28;19975;-35
2023/01/31 04:47:02;;;;;;;;;;;5.20;85.90;;;;;;5092909;28;20307;-33
2023/01/31 04:49:28;;;;;;;;;;;5.20;85.90;;;;;;5092657;28;20009;-32
2023/01/31 04:51:53;;;;;;;;;;;5.20;85.90;;;;;;5092777;28;19972;-33
2023/01/31 04:54:19;;;;;;;;;;;5.20;86.00;;;;;;5092713;28;19908;-35
2023/01/31 04:56:45;;;;;;;;;;;5.20;86.00;;;;;;5092728;28;20038;-34
2023/01/31 04:59:10;;;;;;;;;;;5.20;86.00;;;;;;5092532;28;19912;-33
2023/01/31 05:01:35;;;;;;;;;;;5.20;86.00;;;;;;5092463;28;20228;-30
2023/01/31 05:04:01;;;;;;;;;;;5.30;86.00;;;;;;5092915;28;19959;-31
2023/01/31 05:06:26;;;;;;;;;;;5.30;86.10;;;;;;5092444;28;19919;-34
2023/01/31 05:08:53;;;;;;;;;;;5.30;86.10;;;;;;5092435;28;20221;-33
2023/01/31 05:11:18;;;;;;;;;;;5.30;86.30;;;;;;5092281;28;19908;-33
2023/01/31 05:13:44;;;;;;;;;;;5.30;86.30;;;;;;5091169;28;19908;-30
2023/01/31 05:16:10;;;;;;;;;;;5.30;86.20;;;;;;5092264;28;20326;-30
2023/01/31 05:18:36;;;;;;;;;;;5.40;86.50;;;;;;5092308;28;20344;-30
2023/01/31 05:21:02;;;;;;;;;;;5.40;86.30;;;;;;5092019;28;19946;-32
2023/01/31 05:23:28;;;;;;;;;;;5.30;86.40;;;;;;5092211;28;19916;-32
2023/01/31 05:25:53;;;;;;;;;;;5.30;86.40;;;;;;5092110;28;19909;-30
2023/01/31 05:28:19;;;;;;;;;;;5.40;86.50;;;;;;5092053;28;19999;-33
2023/01/31 05:30:44;;;;;;;;;;;5.40;86.50;;;;;;5092198;28;20011;-34
2023/01/31 05:33:10;;;;;;;;;;;5.40;86.50;;;;;;5092041;28;19912;-37
2023/01/31 05:35:37;;;;;;;;;;;5.40;86.50;;;;;;5091260;28;20270;-35
2023/01/31 05:38:03;;;;;;;;;;;5.40;86.70;;;;;;5091982;28;19993;-33
2023/01/31 05:40:28;;;;;;;;;;;5.40;86.90;;;;;;5091950;28;19908;-33
2023/01/31 05:42:54;;;;;;;;;;;5.40;87.00;;;;;;5092015;28;19985;-32
2023/01/31 05:45:20;;;;;;;;;;;5.40;87.00;;;;;;5092227;28;19969;-34
2023/01/31 05:47:46;;;;;;;;;;;5.40;87.00;;;;;;5092054;28;19908;-30
2023/01/31 05:50:12;;;;;;;;;;;5.40;87.40;;;;;;5091906;28;19908;-33
2023/01/31 05:52:38;;;;;;;;;;;5.40;87.40;;;;;;5091900;28;19918;-38
2023/01/31 05:55:03;;;;;;;;;;;5.40;87.50;;;;;;5091939;28;19991;-35
2023/01/31 05:57:29;;;;;;;;;;;5.40;87.40;;;;;;5091829;28;19908;-33
2023/01/31 05:59:54;;;;;;;;;;;5.40;87.40;;;;;;5091973;28;20240;-30
2023/01/31 06:02:20;;;;;;;;;;;5.40;87.40;;;;;;5091642;28;19931;-36
2023/01/31 06:04:46;;;;;;;;;;;5.40;87.40;;;;;;5091828;28;19908;-33
2023/01/31 06:07:11;;;;;;;;;;;5.50;87.60;;;;;;5091680;28;19908;-50
2023/01/31 06:09:37;;;;;;;;;;;5.50;87.60;;;;;;5091718;28;19919;-37
2023/01/31 06:12:03;;;;;;;;;;;5.50;87.70;;;;;;5091673;28;19909;-36
2023/01/31 06:14:29;;;;;;;;;;;5.50;87.90;;;;;;5091652;28;20007;-35
2023/01/31 06:16:54;;;;;;;;;;;5.50;88.00;;;;;;5091427;28;20323;-31
2023/01/31 06:19:24;;;;;;;;;;;5.50;88.40;;;;;;5091530;28;20281;-31
2023/01/31 06:21:50;;;;;;;;;;;5.50;88.20;;;;;;5091289;28;19924;-34
2023/01/31 06:24:15;;;;;;;;;;;5.50;88.20;;;;;;5091451;28;19908;-32
2023/01/31 06:26:41;;;;;;;;;;;5.50;88.60;;;;;;5091478;28;19915;-31
2023/01/31 06:29:07;;;;;;;;;;;5.50;88.80;;;;;;5091372;28;19920;-33
2023/01/31 06:31:33;;;;;;;;;;;5.60;88.90;;;;;;5091411;28;19905;-32
2023/01/31 06:33:58;;;;;;;;;;;5.50;88.70;;;;;;5091409;28;19998;-34
2023/01/31 06:36:24;;;;;;;;;;;5.50;89.10;;;;;;5091261;28;19908;-32
2023/01/31 06:38:50;;;;;;;;;;;5.50;89.20;;;;;;5091285;28;19908;-34
2023/01/31 06:41:17;;;;;;;;;;;5.50;89.10;;;;;;5091251;28;19923;-33
2023/01/31 06:43:42;;;;;;;;;;;5.50;89.00;;;;;;5091294;28;19909;-32
2023/01/31 06:46:08;;;;;;;;;;;5.50;89.00;;;;;;5091759;28;19908;-38
2023/01/31 06:48:33;;;;;;;;;;;5.50;89.00;;;;;;5095102;28;20359;-38
2023/01/31 06:50:59;;;;;;;;;;;5.50;89.00;;;;;;5095079;28;19969;-31
2023/01/31 06:53:24;;;;;;;;;;;5.60;89.00;;;;;;5095137;28;19916;-33
2023/01/31 06:55:50;;;;;;;;;;;5.60;89.10;;;;;;5095004;28;19908;-33
2023/01/31 06:58:15;;;;;;;;;;;5.60;89.20;;;;;;5094980;28;20002;-38
2023/01/31 07:00:40;;;;;;;;;;;5.60;89.30;;;;;;5095094;28;19916;-33
2023/01/31 07:03:06;;;;;;;;;;;5.60;89.30;;;;;;5094919;28;19961;-33
2023/01/31 07:05:31;;;;;;;;;;;5.60;89.40;;;;;;5095058;28;20261;-33
2023/01/31 07:07:57;;;;;;;;;;;5.60;89.30;;;;;;5094817;28;19958;-35
2023/01/31 07:10:22;;;;;;;;;;;5.60;89.30;;;;;;5094728;28;19947;-30
2023/01/31 07:12:48;;;;;;;;;;;5.70;89.30;;;;;;5094828;28;20010;-32
2023/01/31 07:15:13;;;;;;;;;;;5.70;89.30;;;;;;5094976;28;20019;-31
2023/01/31 07:17:39;;;;;;;;;;;5.70;89.40;;;;;;5094989;28;20275;-30
2023/01/31 07:20:05;;;;;;;;;;;5.70;89.40;;;;;;5094567;28;20065;-30
2023/01/31 07:22:30;;;;;;;;;;;5.70;89.50;;;;;;5094502;28;20370;-47
2023/01/31 07:24:56;;;;;;;;;;;5.70;89.30;;;;;;5094636;28;19912;-38
2023/01/31 07:27:22;;;;;;;;;;;5.70;89.40;;;;;;5094509;28;20352;-33
2023/01/31 07:29:47;;;;;;;;;;;5.60;89.40;;;;;;5094875;28;19997;-34
2023/01/31 07:32:13;;;;;;;;;;;5.70;89.50;;;;;;5094828;28;20041;-34
2023/01/31 07:34:38;;;;;;;;;;;5.60;89.60;;;;;;5094721;28;19954;-33
2023/01/31 07:37:03;;;;;;;;;;;5.60;89.30;;;;;;5094333;28;19908;-32
2023/01/31 07:39:29;;;;;;;;;;;5.60;89.30;;;;;;5094128;28;20379;-32
2023/01/31 07:41:54;;;;;;;;;;;5.70;89.20;;;;;;5094180;28;19912;-33
2023/01/31 07:44:20;;;;;;;;;;;5.70;89.30;;;;;;5094095;28;20412;-30
2023/01/31 07:46:45;;;;;;;;;;;5.70;89.20;;;;;;5094374;28;20002;-37
2023/01/31 07:49:11;;;;;;;;;;;5.70;89.20;;;;;;5094195;28;20323;-34
2023/01/31 07:51:37;;;;;;;;;;;5.70;89.20;;;;;;5094067;28;20003;-31
2023/01/31 07:54:04;;;;;;;;;;;5.70;89.10;;;;;;5094211;28;19962;-34
2023/01/31 07:56:29;;;;;;;;;;;5.80;89.10;;;;;;5094037;28;20367;-37
2023/01/31 07:58:55;;;;;;;;;;;5.80;89.10;;;;;;5092931;28;20017;-35
2023/01/31 08:04:09;;;;;;;;;;;5.80;89.00;;;;;;5094091;28;20266;-38
2023/01/31 08:06:35;;;;;;;;;;;5.80;88.90;;;;;;5093887;28;19908;-31
2023/01/31 08:09:01;;;;;;;;;;;5.80;88.80;;;;;;5093785;28;19915;-37
2023/01/31 08:11:27;;;;;;;;;;;5.90;88.80;;;;;;5093682;28;19908;-36
2023/01/31 08:13:52;;;;;;;;;;;5.90;88.60;;;;;;5093859;28;19987;-31
2023/01/31 08:16:19;;;;;;;;;;;5.90;88.50;;;;;;5093457;28;20154;-31
2023/01/31 08:18:46;;;;;;;;;;;5.90;88.40;;;;;;5093878;28;19920;-30
2023/01/31 08:21:11;;;;;;;;;;;6.00;88.40;;;;;;5093227;28;19993;-33
2023/01/31 08:23:38;;;;;;;;;;;5.90;88.20;;;;;;5093401;28;19951;-35
2023/01/31 08:26:05;;;;;;;;;;;6.00;88.30;;;;;;5093935;28;19943;-34
2023/01/31 08:28:31;;;;;;;;;;;5.90;88.10;;;;;;5093221;28;19908;-32
2023/01/31 08:30:57;;;;;;;;;;;5.90;88.00;;;;;;5093111;28;19912;-36
2023/01/31 08:33:23;;;;;;;;;;;5.90;88.10;;;;;;5093225;28;19915;-34
2023/01/31 08:35:48;;;;;;;;;;;5.90;88.00;;;;;;5093334;28;19962;-36
2023/01/31 08:38:14;;;;;;;;;;;5.90;88.00;;;;;;5093456;28;20232;-33
2023/01/31 08:40:39;;;;;;;;;;;6.00;88.10;;;;;;5092779;28;19947;-31
2023/01/31 08:43:05;;;;;;;;;;;6.00;88.00;;;;;;5093353;28;19947;-33
2023/01/31 08:45:30;;;;;;;;;;;6.00;88.00;;;;;;5092883;28;19954;-31
2023/01/31 08:47:57;;;;;;;;;;;6.00;87.90;;;;;;5091780;28;20375;-40
2023/01/31 08:50:23;;;;;;;;;;;6.10;88.00;;;;;;5093308;28;20287;-41
2023/01/31 08:52:55;;;;;;;;;;;6.10;87.90;;;;;;5092771;28;19915;-38
2023/01/31 08:55:21;;;;;;;;;;;6.10;87.70;;;;;;5092918;28;19968;-37
2023/01/31 08:57:47;;;;;;;;;;;6.10;87.70;;;;;;5092577;28;19916;-37
2023/01/31 09:00:13;;;;;;;;;;;6.20;87.70;;;;;;5092679;28;19908;-35
2023/01/31 09:02:39;;;;;;;;;;;6.20;87.60;;;;;;5092648;28;19912;-36
2023/01/31 09:05:07;;;;;;;;;;;6.20;87.60;;;;;;5092716;28;19908;-41
2023/01/31 09:07:33;;;;;;;;;;;6.30;87.60;;;;;;5092923;28;19947;-32
2023/01/31 09:09:58;;;;;;;;;;;6.30;87.50;;;;;;5092730;28;20433;-38
2023/01/31 09:12:23;;;;;;;;;;;6.30;87.40;;;;;;5092783;28;19981;-43
2023/01/31 09:14:50;;;;;;;;;;;6.30;87.50;;;;;;5092372;28;19915;-37
2023/01/31 09:17:16;;;;;;;;;;;6.30;87.40;;;;;;5092486;28;19931;-36
2023/01/31 09:19:41;;;;;;;;;;;6.30;87.30;;;;;;5092464;28;19908;-31
2023/01/31 09:22:07;;;;;;;;;;;6.30;87.30;;;;;;5092102;28;19925;-34
2023/01/31 09:24:32;;;;;;;;;;;6.30;87.20;;;;;;5092334;28;19908;-33
2023/01/31 09:26:58;;;;;;;;;;;6.30;87.20;;;;;;5092327;28;19914;-35
2023/01/31 09:29:23;;;;;;;;;;;6.30;87.20;;;;;;5092223;28;19908;-29
2023/01/31 09:31:52;;;;;;;;;;;6.30;87.10;;;;;;5092023;28;19951;-34
2023/01/31 09:34:17;;;;;;;;;;;6.30;87.20;;;;;;5092301;28;19952;-35
2023/01/31 09:36:43;;;;;;;;;;;6.30;87.20;;;;;;5092035;28;19955;-38
2023/01/31 09:39:09;;;;;;;;;;;6.30;87.20;;;;;;5091884;28;19909;-35
2023/01/31 09:41:41;;;;;;;;;;;6.30;87.30;;;;;;5091939;28;19920;-41
2023/01/31 09:44:13;;;;;;;;;;;6.30;87.30;;;;;;5092064;28;19915;-39
2023/01/31 09:46:40;;;;;;;;;;;6.30;87.30;;;;;;5092080;28;19943;-37
2023/01/31 09:49:09;;;;;;;;;;;6.30;87.30;;;;;;5092116;28;19957;-31
2023/01/31 09:51:36;;;;;;;;;;;6.40;87.40;;;;;;5091886;28;19908;-39
2023/01/31 09:54:06;;;;;;;;;;;6.30;87.50;;;;;;5091956;28;19999;-49
2023/01/31 09:56:39;;;;;;;;;;;6.30;87.50;;;;;;5092090;28;19909;-37
2023/01/31 09:59:34;;;;;;;;;;;6.40;87.70;;;;;;5092484;28;19908;-41
2023/01/31 10:02:07;;;;;;;;;;;6.40;87.70;;;;;;5082890;28;19934;-32
2023/01/31 10:04:33;;;;;;;;;;;6.40;87.70;;;;;;5091951;28;19908;-32
2023/01/31 10:07:11;;;;;;;;;;;6.40;87.70;;;;;;5091979;28;19915;-46
2023/01/31 10:09:43;;;;;;;;;;;6.40;87.60;;;;;;5091873;28;19931;-29
2023/01/31 10:12:23;;;;;;;;;;;6.50;87.70;;;;;;5091720;28;19912;-32
2023/01/31 10:14:53;;;;;;;;;;;6.50;87.70;;;;;;5091694;28;19908;-34
2023/01/31 10:17:40;;;;;;;;;;;6.50;87.80;;;;;;5091593;28;19916;-36
2023/01/31 10:20:26;;;;;;;;;;;6.50;87.80;;;;;;5091491;28;19908;-38
2023/01/31 10:22:59;;;;;;;;;;;6.60;87.80;;;;;;5087273;28;20364;-37
2023/01/31 10:25:25;;;;;;;;;;;6.60;87.80;;;;;;5095621;28;19912;-32
2023/01/31 10:27:55;;;;;;;;;;;6.60;87.90;;;;;;5095688;28;20176;-36
2023/01/31 10:30:23;;;;;;;;;;;6.70;87.80;;;;;;5095130;28;19915;-41
2023/01/31 10:33:09;;;;;;;;;;;6.80;87.90;;;;;;5094979;28;19912;-34
2023/01/31 10:35:42;;;;;;;;;;;6.80;87.80;;;;;;5094994;28;20368;-46
2023/01/31 10:38:11;;;;;;;;;;;6.90;87.80;;;;;;5095467;28;20021;-41
2023/01/31 10:40:38;;;;;;;;;;;6.90;87.70;;;;;;5095460;28;19909;-35
2023/01/31 10:43:11;;;;;;;;;;;6.90;87.70;;;;;;5095972;28;20263;-37
2023/01/31 10:45:37;;;;;;;;;;;7.00;87.70;;;;;;5095254;28;20324;-33
2023/01/31 10:48:17;;;;;;;;;;;7.00;87.70;;;;;;5095240;28;19999;-30
2023/01/31 10:50:48;;;;;;;;;;;7.00;87.70;;;;;;5093907;28;19915;-35
2023/01/31 10:53:44;;;;;;;;;;;7.10;87.70;;;;;;5095253;28;19995;-31
2023/01/31 10:56:15;;;;;;;;;;;7.10;87.80;;;;;;5040679;28;20336;-34
2023/01/31 10:58:41;;;;;;;;;;;7.10;87.70;;;;;;5095092;28;20382;-36
2023/01/31 11:01:10;;;;;;;;;;;7.10;88.30;;;;;;5094975;28;19912;-32
2023/01/31 11:03:36;;;;;;;;;;;7.20;87.80;;;;;;5095037;28;19995;-42
2023/01/31 11:06:01;;;;;;;;;;;7.20;87.80;;;;;;5095039;28;19941;-31
2023/01/31 11:08:42;;;;;;;;;;;7.30;87.90;;;;;;5095307;28;20338;-36
2023/01/31 11:11:11;;;;;;;;;;;7.30;87.80;;;;;;5094974;28;19962;-35
2023/01/31 11:13:37;;;;;;;;;;;7.30;87.80;;;;;;5095194;28;19912;-36
2023/01/31 11:16:05;;;;;;;;;;;7.30;87.80;;;;;;5094741;28;20343;-34
2023/01/31 11:18:35;;;;;;;;;;;7.30;87.80;;;;;;5095057;28;20378;-44
2023/01/31 11:21:01;;;;;;;;;;;7.40;87.90;;;;;;5094560;28;20362;-45
2023/01/31 11:23:28;;;;;;;;;;;7.40;87.90;;;;;;5094789;28;20294;-46
2023/01/31 11:25:55;;;;;;;;;;;7.40;87.90;;;;;;5094715;28;19909;-31
2023/01/31 11:28:20;;;;;;;;;;;7.40;87.90;;;;;;5094713;28;20003;-44
2023/01/31 11:30:50;;;;;;;;;;;7.50;87.90;;;;;;5094727;28;19951;-33
2023/01/31 11:33:34;;;;;;;;;;;7.50;88.00;;;;;;5093156;28;19962;-39
2023/01/31 11:36:05;;;;;;;;;;;7.40;88.00;;;;;;5094374;28;20394;-38
2023/01/31 11:38:31;;;;;;;;;;;7.40;88.10;;;;;;5094362;28;19908;-39
2023/01/31 11:40:56;;;;;;;;;;;7.40;88.20;;;;;;5094593;28;19939;-37
2023/01/31 11:43:24;;;;;;;;;;;7.50;88.40;;;;;;5094319;28;19995;-43
2023/01/31 11:45:55;;;;;;;;;;;7.50;88.40;;;;;;5094158;28;20015;-37
2023/01/31 11:48:22;;;;;;;;;;;7.50;88.30;;;;;;5094150;28;19915;-40
2023/01/31 11:50:50;;;;;;;;;;;7.50;88.30;;;;;;5094359;28;19919;-35
2023/01/31 11:53:20;;;;;;;;;;;7.60;88.30;;;;;;5094365;28;20028;-36
2023/01/31 11:55:47;;;;;;;;;;;7.60;88.50;;;;;;5093658;28;19946;-33
2023/01/31 11:58:18;;;;;;;;;;;7.60;88.50;;;;;;5094458;28;19912;-33
2023/01/31 12:00:51;;;;;;;;;;;7.70;88.80;;;;;;5094305;28;19915;-33
2023/01/31 12:03:17;;;;;;;;;;;7.60;88.80;;;;;;5094240;28;19908;-41
2023/01/31 12:05:44;;;;;;;;;;;7.60;88.90;;;;;;5094210;28;20252;-37
2023/01/31 12:08:28;;;;;;;;;;;7.60;89.20;;;;;;5093797;28;19958;-38
2023/01/31 12:10:53;;;;;;;;;;;7.60;89.40;;;;;;5094095;28;19931;-32
2023/01/31 12:13:20;;;;;;;;;;;7.60;89.50;;;;;;5093933;28;19908;-32
2023/01/31 12:15:54;;;;;;;;;;;7.60;90.10;;;;;;5093371;28;19908;-40
2023/01/31 12:18:27;;;;;;;;;;;7.60;90.00;;;;;;5093954;28;19908;-41
2023/01/31 12:21:04;;;;;;;;;;;7.60;90.10;;;;;;5093407;28;19920;-37
2023/01/31 12:23:53;;;;;;;;;;;7.60;90.20;;;;;;5093819;28;20351;-33
2023/01/31 12:26:18;;;;;;;;;;;7.60;90.40;;;;;;5073661;28;19915;-36
2023/01/31 12:28:44;;;;;;;;;;;7.60;90.50;;;;;;5093558;28;19908;-33
2023/01/31 12:31:28;;;;;;;;;;;7.60;90.60;;;;;;5093696;28;19985;-41
2023/01/31 12:34:12;;;;;;;;;;;7.60;90.60;;;;;;5093398;28;19908;-33
2023/01/31 12:36:49;;;;;;;;;;;7.60;90.70;;;;;;5093384;28;19912;-37
2023/01/31 12:39:30;;;;;;;;;;;7.60;90.90;;;;;;5093215;28;19908;-34
2023/01/31 12:42:02;;;;;;;;;;;7.50;90.90;;;;;;5093155;28;19912;-38
2023/01/31 12:44:46;;;;;;;;;;;7.60;91.00;;;;;;5092745;28;19913;-36
2023/01/31 12:47:25;;;;;;;;;;;7.60;91.10;;;;;;5093003;28;19908;-34
2023/01/31 12:49:53;;;;;;;;;;;7.60;91.20;;;;;;5092964;28;19908;-33
2023/01/31 12:52:34;;;;;;;;;;;7.50;91.30;;;;;;5093193;28;19908;-36
2023/01/31 12:55:18;;;;;;;;;;;7.60;91.40;;;;;;5092912;28;19908;-35
2023/01/31 12:57:46;;;;;;;;;;;7.50;91.40;;;;;;5092897;28;19908;-36
2023/01/31 13:00:32;;;;;;;;;;;7.60;91.40;;;;;;5092884;28;19960;-31
2023/01/31 13:03:13;;;;;;;;;;;7.60;91.50;;;;;;5092395;28;20292;-35
2023/01/31 13:05:41;;;;;;;;;;;7.60;91.50;;;;;;5092844;28;19912;-35
2023/01/31 13:08:16;;;;;;;;;;;7.50;91.50;;;;;;5093047;28;19995;-33
2023/01/31 13:10:46;;;;;;;;;;;7.60;91.60;;;;;;5093037;28;19968;-37
2023/01/31 13:13:18;;;;;;;;;;;7.60;91.60;;;;;;5092923;28;20023;-32
2023/01/31 13:15:48;;;;;;;;;;;7.70;91.80;;;;;;5092597;28;19908;-34
2023/01/31 13:18:13;;;;;;;;;;;7.70;91.90;;;;;;5092761;28;19912;-36
2023/01/31 13:20:53;;;;;;;;;;;7.60;91.80;;;;;;5092435;28;19927;-36
2023/01/31 13:23:22;;;;;;;;;;;7.70;91.90;;;;;;5092586;28;19958;-31
2023/01/31 13:25:50;;;;;;;;;;;7.70;91.90;;;;;;5092698;28;20009;-32
2023/01/31 13:28:20;;;;;;;;;;;7.70;91.90;;;;;;5092027;28;20240;-38
2023/01/31 13:30:56;;;;;;;;;;;7.80;92.00;;;;;;5092758;28;19912;-34
2023/01/31 13:33:21;;;;;;;;;;;7.80;92.00;;;;;;5092424;28;19915;-35
2023/01/31 13:35:49;;;;;;;;;;;7.90;92.00;;;;;;5092358;28;19912;-31
2023/01/31 13:38:17;;;;;;;;;;;7.90;91.90;;;;;;5092531;28;19909;-31
2023/01/31 13:40:53;;;;;;;;;;;7.90;91.90;;;;;;5092063;28;19938;-32
2023/01/31 13:43:19;;;;;;;;;;;8.00;92.00;;;;;;5092365;28;19918;-31
2023/01/31 13:46:02;;;;;;;;;;;8.00;91.90;;;;;;5092512;28;20382;-34
2023/01/31 13:48:51;;;;;;;;;;;8.00;91.80;;;;;;5092474;28;19908;-31
2023/01/31 13:51:19;;;;;;;;;;;8.00;91.80;;;;;;5092416;28;20340;-36
2023/01/31 13:53:58;;;;;;;;;;;8.10;91.70;;;;;;5092007;28;19914;-33
2023/01/31 13:56:28;;;;;;;;;;;8.10;91.80;;;;;;5091154;28;20011;-36
2023/01/31 13:58:54;;;;;;;;;;;8.10;91.80;;;;;;5091947;28;19908;-31
2023/01/31 14:01:24;;;;;;;;;;;8.10;91.70;;;;;;5073765;28;20348;-41
2023/01/31 14:04:09;;;;;;;;;;;8.20;91.70;;;;;;5092227;28;19940;-35
2023/01/31 14:06:56;;;;;;;;;;;8.20;91.70;;;;;;5090585;28;20268;-38
2023/01/31 14:09:21;;;;;;;;;;;8.20;91.90;;;;;;5092092;28;20406;-32
2023/01/31 14:11:46;;;;;;;;;;;8.20;91.60;;;;;;5092028;28;19912;-32
2023/01/31 14:14:31;;;;;;;;;;;8.30;91.60;;;;;;5091862;28;19908;-36
2023/01/31 14:16:56;;;;;;;;;;;8.30;91.60;;;;;;5091845;28;19908;-33
2023/01/31 14:19:21;;;;;;;;;;;8.30;91.50;;;;;;5090430;28;20283;-36
2023/01/31 14:21:56;;;;;;;;;;;8.40;91.50;;;;;;5091698;28;20395;-35
2023/01/31 14:24:40;;;;;;;;;;;8.40;91.60;;;;;;5091736;28;19908;-39
2023/01/31 14:27:12;;;;;;;;;;;8.40;91.60;;;;;;5092018;28;19908;-34
2023/01/31 14:29:40;;;;;;;;;;;8.40;91.50;;;;;;5091574;28;19966;-35
2023/01/31 14:32:12;;;;;;;;;;;8.40;91.50;;;;;;5091534;28;19908;-35
2023/01/31 14:34:38;;;;;;;;;;;8.40;91.40;;;;;;5091695;28;20348;-35
2023/01/31 14:37:17;;;;;;;;;;;8.40;91.40;;;;;;5091547;28;19920;-42
2023/01/31 14:39:43;;;;;;;;;;;8.40;91.40;;;;;;5091605;28;20111;-31
2023/01/31 14:42:11;;;;;;;;;;;8.50;91.40;;;;;;5091547;28;19912;-35
2023/01/31 14:44:36;;;;;;;;;;;8.50;91.40;;;;;;5091792;28;20007;-31
2023/01/31 14:47:21;;;;;;;;;;;8.50;91.30;;;;;;5091408;28;19944;-33
2023/01/31 14:50:00;;;;;;;;;;;8.50;91.30;;;;;;5091440;28;19954;-35